Terminal Aerodrome Forecast
Issued by NWS

Home | Current Version | Previous Version | Text Only | Print | Product List | Glossary Off
Versions: 1 2 3 4 5 6 7 8 9 10 11 12 13 14 15 16 17 18

000
FTUS43 KGRB 312334
TAFATW
TAF
KATW 312334Z 0100/0124 19010KT P6SM SCT035
     FM010100 19005KT P6SM SKC
     FM010400 VRB03KT 5SM BR SCT012
     FM010900 VRB03KT 3SM BR FEW005 SCT010
      TEMPO 0110/0114 1 1/2SM BR SCT005
     FM011400 21008KT P6SM SCT012 SCT200
     FM011800 21008KT P6SM SCT200=

USA.gov is the U.S. government's official web portal to all federal, state and local government web resources and services.